MCO weather

Orlando International Airport
Orlando, Florida, United States

Public forecast

Using degrees Fahrenheit for public forecast. Weather courtesy of forecast.io.

METAR (pilot weather report)

Retrieved 2017/08/17 02:53 UTC (11 minutes ago):

KMCO 170253Z 00000KT 10SM SCT220 24/23 A3009 RMK AO2 SLP187 60000 T02390233 53012

TAF (pilot weather forecast)

Forecast is more than 12 hours old.

Retrieved 2017/08/16 00:27 UTC (1 day ago):

TAF KMCO 162325Z 1700/1724 11008KT P6SM FEW030 BKN120 FM170200 VRB02KT P6SM SCT250 FM171400 25005KT P6SM FEW030 SCT250 FM172000 17008KT P6SM VCTS SCT040CB BKN100